Time;durP1;ratioP1;P1;durP2;ratioP2;P2;SDS_P1;SDS_P2;PMS_P1;PMS_P2;Temp;Humidity;BMP_temperature;BMP_pressure;BME280_temperature;BME280_humidity;BME280_pressure;Samples;Min_cycle;Max_cycle;Signal;HPM_P1;HPM_P2
2023/02/08 00:00:03;;;;;;;;;;;;;;;;;;5021561;28;19932;-74
2023/02/08 00:02:29;;;;;;;;;;;;;;;;;;5020669;28;19921;-75
2023/02/08 00:04:55;;;;;;;;;;;;;;;;;;5024123;28;19917;-76
2023/02/08 00:07:22;;;;;;;;;;;;;;;;;;5033690;28;19921;-75
2023/02/08 00:09:53;;;;;;;;;;;;;;;;;;5022755;28;19967;-75
2023/02/08 00:12:21;;;;;;;;;;;;;;;;;;5033232;28;19916;-76
2023/02/08 00:14:46;;;;;;;;;;;;;;;;;;5034384;28;20081;-75
2023/02/08 00:17:11;;;;;;;;;;;;;;;;;;5021132;28;19917;-75
2023/02/08 00:19:37;;;;;;;;;;;;;;;;;;5036500;28;19962;-75
2023/02/08 00:22:02;;;;;;;;;;;;;;;;;;5028578;28;20004;-76
2023/02/08 00:24:27;;;;;;;;;;;;;;;;;;5041672;28;19917;-74
2023/02/08 00:26:55;;;;;;;;;;;;;;;;;;5036897;28;19979;-74
2023/02/08 00:29:23;;;;;;;;;;;;;;;;;;5026676;28;20208;-75
2023/02/08 00:31:53;;;;;;;;;;;;;;;;;;5027146;28;20126;-75
2023/02/08 00:34:21;;;;;;;;;;;;;;;;;;5024658;28;20331;-76
2023/02/08 00:36:46;;;;;;;;;;;;;;;;;;5039947;28;20354;-75
2023/02/08 00:39:14;;;;;;;;;;;;;;;;;;5037079;28;19920;-76
2023/02/08 00:41:39;;;;;;;;;;;;;;;;;;5038043;28;20424;-76
2023/02/08 00:44:05;;;;;;;;;;;;;;;;;;5028994;28;20327;-75
2023/02/08 00:46:30;;;;;;;;;;;;;;;;;;5037754;28;20292;-75
2023/02/08 00:48:55;;;;;;;;;;;;;;;;;;5038114;28;20296;-75
2023/02/08 00:51:20;;;;;;;;;;;;;;;;;;5024906;28;20198;-76
2023/02/08 00:53:48;;;;;;;;;;;;;;;;;;5026417;28;20292;-76
2023/02/08 00:56:13;;;;;;;;;;;;;;;;;;5022258;28;20024;-76
2023/02/08 00:58:41;;;;;;;;;;;;;;;;;;5036772;28;19920;-76
2023/02/08 01:01:06;;;;;;;;;;;;;;;;;;5042707;28;19928;-76
2023/02/08 01:03:34;;;;;;;;;;;;;;;;;;5026400;28;20412;-75
2023/02/08 01:06:05;;;;;;;;;;;;;;;;;;5025614;28;20092;-76
2023/02/08 01:08:30;;;;;;;;;;;;;;;;;;5037794;28;19939;-76
2023/02/08 01:10:56;;;;;;;;;;;;;;;;;;5036522;28;19926;-76
2023/02/08 01:13:21;;;;;;;;;;;;;;;;;;5035586;28;19916;-76
2023/02/08 01:15:46;;;;;;;;;;;;;;;;;;5038062;28;19927;-77
2023/02/08 01:18:11;;;;;;;;;;;;;;;;;;5034441;28;19924;-76
2023/02/08 01:20:37;;;;;;;;;;;;;;;;;;5024494;28;19931;-76
2023/02/08 01:23:05;;;;;;;;;;;;;;;;;;5034997;28;20082;-76
2023/02/08 01:25:35;;;;;;;;;;;;;;;;;;5023279;28;19923;-75
2023/02/08 01:28:01;;;;;;;;;;;;;;;;;;5024400;28;19923;-74
2023/02/08 01:30:29;;;;;;;;;;;;;;;;;;5024100;28;19920;-76
2023/02/08 01:32:54;;;;;;;;;;;;;;;;;;5033861;28;19928;-76
2023/02/08 01:35:22;;;;;;;;;;;;;;;;;;5025944;28;21350;-76
2023/02/08 01:37:47;;;;;;;;;;;;;;;;;;5038879;28;19920;-76
2023/02/08 01:40:15;;;;;;;;;;;;;;;;;;5036309;28;20367;-76
2023/02/08 01:42:43;;;;;;;;;;;;;;;;;;5036308;28;19917;-75
2023/02/08 01:45:08;;;;;;;;;;;;;;;;;;5024128;28;19920;-75
2023/02/08 01:47:34;;;;;;;;;;;;;;;;;;5023786;28;19927;-75
2023/02/08 01:50:04;;;;;;;;;;;;;;;;;;5038367;28;20406;-75
2023/02/08 01:52:32;;;;;;;;;;;;;;;;;;5022294;28;19927;-75
2023/02/08 01:55:01;;;;;;;;;;;;;;;;;;5024303;28;19920;-75
2023/02/08 01:57:29;;;;;;;;;;;;;;;;;;5039446;28;20008;-75
2023/02/08 01:59:56;;;;;;;;;;;;;;;;;;5036654;28;19929;-75
2023/02/08 02:02:22;;;;;;;;;;;;;;;;;;5025124;28;19968;-75
2023/02/08 02:04:47;;;;;;;;;;;;;;;;;;5038797;28;20054;-75
2023/02/08 02:07:15;;;;;;;;;;;;;;;;;;5041192;28;19926;-74
2023/02/08 02:09:40;;;;;;;;;;;;;;;;;;5038852;28;19916;-75
2023/02/08 02:12:06;;;;;;;;;;;;;;;;;;5034349;28;21847;-75
2023/02/08 02:14:31;;;;;;;;;;;;;;;;;;5037079;28;19960;-74
2023/02/08 02:16:56;;;;;;;;;;;;;;;;;;5034251;28;20838;-75
2023/02/08 02:19:21;;;;;;;;;;;;;;;;;;5035318;28;20050;-77
2023/02/08 02:21:47;;;;;;;;;;;;;;;;;;5033857;28;20015;-75
2023/02/08 02:24:14;;;;;;;;;;;;;;;;;;5036459;28;20409;-75
2023/02/08 02:26:42;;;;;;;;;;;;;;;;;;5025168;28;20311;-74
2023/02/08 02:29:10;;;;;;;;;;;;;;;;;;5035553;28;20025;-74
2023/02/08 02:31:43;;;;;;;;;;;;;;;;;;5034838;28;20450;-75
2023/02/08 02:34:11;;;;;;;;;;;;;;;;;;5024025;28;20289;-76
2023/02/08 02:36:36;;;;;;;;;;;;;;;;;;5023241;28;19943;-75
2023/02/08 02:39:07;;;;;;;;;;;;;;;;;;5036774;28;19921;-74
2023/02/08 02:44:16;;;;;;;;;;;;;;;;;;5034503;28;19928;-75
2023/02/08 02:46:41;;;;;;;;;;;;;;;;;;5034042;28;19917;-75
2023/02/08 02:49:09;;;;;;;;;;;;;;;;;;5031255;28;21521;-75
2023/02/08 02:51:34;;;;;;;;;;;;;;;;;;5031455;28;19927;-74
2023/02/08 02:54:05;;;;;;;;;;;;;;;;;;5049833;28;19920;-75
2023/02/08 02:56:30;;;;;;;;;;;;;;;;;;5023769;28;19921;-75
2023/02/08 02:58:56;;;;;;;;;;;;;;;;;;5034819;28;20021;-75
2023/02/08 03:01:24;;;;;;;;;;;;;;;;;;5034291;28;20496;-75
2023/02/08 03:03:49;;;;;;;;;;;;;;;;;;5033955;28;20111;-75
2023/02/08 03:06:15;;;;;;;;;;;;;;;;;;5018568;28;19921;-74
2023/02/08 03:08:43;;;;;;;;;;;;;;;;;;5031365;28;19928;-75
2023/02/08 03:11:13;;;;;;;;;;;;;;;;;;5030692;28;19999;-75
2023/02/08 03:13:39;;;;;;;;;;;;;;;;;;5034465;28;19921;-75
2023/02/08 03:16:04;;;;;;;;;;;;;;;;;;5020036;28;19924;-75
2023/02/08 03:18:32;;;;;;;;;;;;;;;;;;5048764;28;19921;-74
2023/02/08 03:20:57;;;;;;;;;;;;;;;;;;5038456;28;19924;-75
2023/02/08 03:23:25;;;;;;;;;;;;;;;;;;5017565;28;19927;-75
2023/02/08 03:25:52;;;;;;;;;;;;;;;;;;5022109;28;19924;-74
2023/02/08 03:28:23;;;;;;;;;;;;;;;;;;5034840;28;19948;-74
2023/02/08 03:30:51;;;;;;;;;;;;;;;;;;5033519;28;20039;-75
2023/02/08 03:33:16;;;;;;;;;;;;;;;;;;5021499;28;19920;-75
2023/02/08 03:35:44;;;;;;;;;;;;;;;;;;5047283;28;20388;-74
2023/02/08 03:38:09;;;;;;;;;;;;;;;;;;5033775;28;20034;-74
2023/02/08 03:40:37;;;;;;;;;;;;;;;;;;5020668;28;20057;-75
2023/02/08 03:43:02;;;;;;;;;;;;;;;;;;5030284;28;19920;-75
2023/02/08 03:45:28;;;;;;;;;;;;;;;;;;5020196;28;20478;-73
2023/02/08 03:47:53;;;;;;;;;;;;;;;;;;5033007;28;19931;-73
2023/02/08 03:50:18;;;;;;;;;;;;;;;;;;5030830;28;19920;-73
2023/02/08 03:52:46;;;;;;;;;;;;;;;;;;5021847;28;19963;-74
2023/02/08 03:55:13;;;;;;;;;;;;;;;;;;5031128;28;19920;-73
2023/02/08 03:57:41;;;;;;;;;;;;;;;;;;5029655;28;20314;-74
2023/02/08 04:00:06;;;;;;;;;;;;;;;;;;5047457;28;20014;-74
2023/02/08 04:02:32;;;;;;;;;;;;;;;;;;5021914;28;20321;-73
2023/02/08 04:04:57;;;;;;;;;;;;;;;;;;5022569;28;19943;-73
2023/02/08 04:07:25;;;;;;;;;;;;;;;;;;5031636;28;20212;-74
2023/02/08 04:09:50;;;;;;;;;;;;;;;;;;5032647;28;20376;-73
2023/02/08 04:12:16;;;;;;;;;;;;;;;;;;5034095;28;19963;-74
2023/02/08 04:14:41;;;;;;;;;;;;;;;;;;5021258;28;20033;-74
2023/02/08 04:17:06;;;;;;;;;;;;;;;;;;5019055;28;19925;-74
2023/02/08 04:19:32;;;;;;;;;;;;;;;;;;5045561;28;20369;-74
2023/02/08 04:22:00;;;;;;;;;;;;;;;;;;5048270;28;20015;-74
2023/02/08 04:24:25;;;;;;;;;;;;;;;;;;5048375;28;19921;-73
2023/02/08 04:26:51;;;;;;;;;;;;;;;;;;5028994;28;19956;-74
2023/02/08 04:29:16;;;;;;;;;;;;;;;;;;5033275;28;20019;-74
2023/02/08 04:31:41;;;;;;;;;;;;;;;;;;5029465;28;20283;-74
2023/02/08 04:34:07;;;;;;;;;;;;;;;;;;5020512;28;20288;-73
2023/02/08 04:36:32;;;;;;;;;;;;;;;;;;5020923;28;20548;-74
2023/02/08 04:39:00;;;;;;;;;;;;;;;;;;5032009;28;19924;-73
2023/02/08 04:41:28;;;;;;;;;;;;;;;;;;5030097;28;20425;-73
2023/02/08 04:43:53;;;;;;;;;;;;;;;;;;5031872;28;20133;-73
2023/02/08 04:46:21;;;;;;;;;;;;;;;;;;5033604;28;20297;-73
2023/02/08 04:48:49;;;;;;;;;;;;;;;;;;5033793;28;19931;-73
2023/02/08 04:51:17;;;;;;;;;;;;;;;;;;5031949;28;19927;-73
2023/02/08 04:53:42;;;;;;;;;;;;;;;;;;5034500;28;19921;-72
2023/02/08 04:56:07;;;;;;;;;;;;;;;;;;5029562;28;19940;-73
2023/02/08 04:58:33;;;;;;;;;;;;;;;;;;5047707;28;20042;-73
2023/02/08 05:00:58;;;;;;;;;;;;;;;;;;5032155;28;19936;-71
2023/02/08 05:03:23;;;;;;;;;;;;;;;;;;5031641;28;20232;-72
2023/02/08 05:05:48;;;;;;;;;;;;;;;;;;5033117;28;20088;-72
2023/02/08 05:08:19;;;;;;;;;;;;;;;;;;5037092;28;19928;-72
2023/02/08 05:10:44;;;;;;;;;;;;;;;;;;5034547;28;20573;-72
2023/02/08 05:13:12;;;;;;;;;;;;;;;;;;5034188;28;20498;-72
2023/02/08 05:15:40;;;;;;;;;;;;;;;;;;5036176;28;19970;-73
2023/02/08 05:18:08;;;;;;;;;;;;;;;;;;5034327;28;20424;-72
2023/02/08 05:20:36;;;;;;;;;;;;;;;;;;5035229;28;19932;-72
2023/02/08 05:23:04;;;;;;;;;;;;;;;;;;5037140;28;19955;-72
2023/02/08 05:25:30;;;;;;;;;;;;;;;;;;5021427;28;20030;-71
2023/02/08 05:27:58;;;;;;;;;;;;;;;;;;5033414;28;20134;-72
2023/02/08 05:30:23;;;;;;;;;;;;;;;;;;5035554;28;19924;-72
2023/02/08 05:32:48;;;;;;;;;;;;;;;;;;5035677;28;19956;-73
2023/02/08 05:35:16;;;;;;;;;;;;;;;;;;5035274;28;20036;-71
2023/02/08 05:37:43;;;;;;;;;;;;;;;;;;5033582;28;19920;-71
2023/02/08 05:40:12;;;;;;;;;;;;;;;;;;5024639;28;19952;-71
2023/02/08 05:42:37;;;;;;;;;;;;;;;;;;5033901;28;20083;-72
2023/02/08 05:45:02;;;;;;;;;;;;;;;;;;5019575;28;19921;-72
2023/02/08 05:47:27;;;;;;;;;;;;;;;;;;5023377;28;20617;-72
2023/02/08 05:49:53;;;;;;;;;;;;;;;;;;5035793;28;20027;-71
2023/02/08 05:52:18;;;;;;;;;;;;;;;;;;5033284;28;19921;-72
2023/02/08 05:54:43;;;;;;;;;;;;;;;;;;5035565;28;20582;-72
2023/02/08 05:57:08;;;;;;;;;;;;;;;;;;5034210;28;19994;-73
2023/02/08 05:59:34;;;;;;;;;;;;;;;;;;5025162;28;19920;-73
2023/02/08 06:01:59;;;;;;;;;;;;;;;;;;5035504;28;19931;-73
2023/02/08 06:04:27;;;;;;;;;;;;;;;;;;5035257;28;19928;-73
2023/02/08 06:06:55;;;;;;;;;;;;;;;;;;5035036;28;19928;-73
2023/02/08 06:09:20;;;;;;;;;;;;;;;;;;5035053;28;19920;-73
2023/02/08 06:11:48;;;;;;;;;;;;;;;;;;5035899;28;20376;-73
2023/02/08 06:14:16;;;;;;;;;;;;;;;;;;5035255;28;19920;-73
2023/02/08 06:16:41;;;;;;;;;;;;;;;;;;5021147;28;20046;-74
2023/02/08 06:19:09;;;;;;;;;;;;;;;;;;5048580;28;19921;-73
2023/02/08 06:21:41;;;;;;;;;;;;;;;;;;5034127;28;20458;-74
2023/02/08 06:24:06;;;;;;;;;;;;;;;;;;5032607;28;19974;-74
2023/02/08 06:26:34;;;;;;;;;;;;;;;;;;5024006;28;19925;-73
2023/02/08 06:29:01;;;;;;;;;;;;;;;;;;5032510;28;19921;-74
2023/02/08 06:31:27;;;;;;;;;;;;;;;;;;5017998;28;19924;-73
2023/02/08 06:33:52;;;;;;;;;;;;;;;;;;5041439;28;20106;-73
2023/02/08 06:36:17;;;;;;;;;;;;;;;;;;5030607;28;19917;-74
2023/02/08 06:38:42;;;;;;;;;;;;;;;;;;5031481;28;19924;-75
2023/02/08 06:41:10;;;;;;;;;;;;;;;;;;5034699;28;19928;-73
2023/02/08 06:43:39;;;;;;;;;;;;;;;;;;5024975;28;19927;-74
2023/02/08 06:46:07;;;;;;;;;;;;;;;;;;5035348;28;20114;-74
2023/02/08 06:48:33;;;;;;;;;;;;;;;;;;5033010;28;20046;-74
2023/02/08 06:50:58;;;;;;;;;;;;;;;;;;5031892;28;19929;-74
2023/02/08 06:53:23;;;;;;;;;;;;;;;;;;5018879;28;20290;-75
2023/02/08 06:55:49;;;;;;;;;;;;;;;;;;5034209;28;19949;-74
2023/02/08 06:58:16;;;;;;;;;;;;;;;;;;5023264;28;20450;-75
2023/02/08 07:00:44;;;;;;;;;;;;;;;;;;5034196;28;19928;-75
2023/02/08 07:03:09;;;;;;;;;;;;;;;;;;5021644;28;19925;-75
2023/02/08 07:05:37;;;;;;;;;;;;;;;;;;5023042;28;20379;-74
2023/02/08 07:08:03;;;;;;;;;;;;;;;;;;5033932;28;20000;-75
2023/02/08 07:10:31;;;;;;;;;;;;;;;;;;5033363;28;19921;-74
2023/02/08 07:12:56;;;;;;;;;;;;;;;;;;5034788;28;19950;-74
2023/02/08 07:15:24;;;;;;;;;;;;;;;;;;5030687;28;19921;-74
2023/02/08 07:17:55;;;;;;;;;;;;;;;;;;5020639;28;19917;-75
2023/02/08 07:20:20;;;;;;;;;;;;;;;;;;5033467;28;20209;-75
2023/02/08 07:22:45;;;;;;;;;;;;;;;;;;5035495;28;19921;-74
2023/02/08 07:25:11;;;;;;;;;;;;;;;;;;5018553;28;19961;-75
2023/02/08 07:27:39;;;;;;;;;;;;;;;;;;5029305;28;19931;-76
2023/02/08 07:30:07;;;;;;;;;;;;;;;;;;5022614;28;20031;-75
2023/02/08 07:32:35;;;;;;;;;;;;;;;;;;5031772;28;19927;-75
2023/02/08 07:35:00;;;;;;;;;;;;;;;;;;5034767;28;19920;-76
2023/02/08 07:37:26;;;;;;;;;;;;;;;;;;5029808;28;19921;-75
2023/02/08 07:39:55;;;;;;;;;;;;;;;;;;5020974;28;20067;-75
2023/02/08 07:42:20;;;;;;;;;;;;;;;;;;5018175;28;19916;-74
2023/02/08 07:44:46;;;;;;;;;;;;;;;;;;5018528;28;19921;-73
2023/02/08 07:47:11;;;;;;;;;;;;;;;;;;5022060;28;19958;-75
2023/02/08 07:49:36;;;;;;;;;;;;;;;;;;5021718;28;19928;-74
2023/02/08 07:52:04;;;;;;;;;;;;;;;;;;5033204;28;20482;-74
2023/02/08 07:54:30;;;;;;;;;;;;;;;;;;5034631;28;20063;-74
2023/02/08 07:56:55;;;;;;;;;;;;;;;;;;5017547;28;21002;-75
2023/02/08 07:59:20;;;;;;;;;;;;;;;;;;5032522;28;19955;-74
2023/02/08 08:01:48;;;;;;;;;;;;;;;;;;5031273;28;19928;-74
2023/02/08 08:04:13;;;;;;;;;;;;;;;;;;5033062;28;21358;-74
2023/02/08 08:06:41;;;;;;;;;;;;;;;;;;5034203;28;19962;-75
2023/02/08 08:09:06;;;;;;;;;;;;;;;;;;5022633;28;19932;-75
2023/02/08 08:11:31;;;;;;;;;;;;;;;;;;5036764;28;21538;-74
2023/02/08 08:14:01;;;;;;;;;;;;;;;;;;5020531;28;19936;-74
2023/02/08 08:16:27;;;;;;;;;;;;;;;;;;5033578;28;19921;-74
2023/02/08 08:18:55;;;;;;;;;;;;;;;;;;5037112;28;19924;-73
2023/02/08 08:21:23;;;;;;;;;;;;;;;;;;5033785;28;19920;-73
2023/02/08 08:23:48;;;;;;;;;;;;;;;;;;5036473;28;19924;-73
2023/02/08 08:26:19;;;;;;;;;;;;;;;;;;5049275;28;20610;-73
2023/02/08 08:28:47;;;;;;;;;;;;;;;;;;5033128;28;20004;-74
2023/02/08 08:31:12;;;;;;;;;;;;;;;;;;5017927;28;20609;-73
2023/02/08 08:33:40;;;;;;;;;;;;;;;;;;5035149;28;19928;-74
2023/02/08 08:36:10;;;;;;;;;;;;;;;;;;5021283;28;20477;-73
2023/02/08 08:38:39;;;;;;;;;;;;;;;;;;5040331;28;20162;-74
2023/02/08 08:41:05;;;;;;;;;;;;;;;;;;5036264;28;19948;-74
2023/02/08 08:43:33;;;;;;;;;;;;;;;;;;5051256;28;19986;-73
2023/02/08 08:46:00;;;;;;;;;;;;;;;;;;5024537;28;19917;-73
2023/02/08 08:48:26;;;;;;;;;;;;;;;;;;5038229;28;20220;-73
2023/02/08 08:50:51;;;;;;;;;;;;;;;;;;5036192;28;20872;-73
2023/02/08 08:53:16;;;;;;;;;;;;;;;;;;5035149;28;19921;-73
2023/02/08 08:55:47;;;;;;;;;;;;;;;;;;5035337;28;19927;-73
2023/02/08 08:58:15;;;;;;;;;;;;;;;;;;5022590;28;19984;-72
2023/02/08 09:00:40;;;;;;;;;;;;;;;;;;5035887;28;19921;-73
2023/02/08 09:03:05;;;;;;;;;;;;;;;;;;5023554;28;20291;-73
2023/02/08 09:05:33;;;;;;;;;;;;;;;;;;5025683;28;20466;-73
2023/02/08 09:08:00;;;;;;;;;;;;;;;;;;5035716;28;20002;-73
2023/02/08 09:10:25;;;;;;;;;;;;;;;;;;5033876;28;20667;-72
2023/02/08 09:12:51;;;;;;;;;;;;;;;;;;5034493;28;19964;-72
2023/02/08 09:15:22;;;;;;;;;;;;;;;;;;5033669;28;20435;-73
2023/02/08 09:17:47;;;;;;;;;;;;;;;;;;5033893;28;20443;-72
2023/02/08 09:20:17;;;;;;;;;;;;;;;;;;5034854;28;20572;-72
2023/02/08 09:22:42;;;;;;;;;;;;;;;;;;5037592;28;20355;-72
2023/02/08 09:25:11;;;;;;;;;;;;;;;;;;5022939;28;19951;-71
2023/02/08 09:27:36;;;;;;;;;;;;;;;;;;5022605;28;19920;-71
2023/02/08 09:30:04;;;;;;;;;;;;;;;;;;5035816;28;19975;-72
2023/02/08 09:32:29;;;;;;;;;;;;;;;;;;5036907;28;19964;-74
2023/02/08 09:34:57;;;;;;;;;;;;;;;;;;5035913;28;19927;-73
2023/02/08 09:37:22;;;;;;;;;;;;;;;;;;5022990;28;19923;-73
2023/02/08 09:39:47;;;;;;;;;;;;;;;;;;5034382;28;19921;-74
2023/02/08 09:42:15;;;;;;;;;;;;;;;;;;5031531;28;19927;-74
2023/02/08 09:44:41;;;;;;;;;;;;;;;;;;5023387;28;19920;-73
2023/02/08 09:47:11;;;;;;;;;;;;;;;;;;5036680;28;19931;-73
2023/02/08 09:49:39;;;;;;;;;;;;;;;;;;5021260;28;20312;-73
2023/02/08 09:52:05;;;;;;;;;;;;;;;;;;5022308;28;19917;-71
2023/02/08 09:54:33;;;;;;;;;;;;;;;;;;5034576;28;20054;-71
2023/02/08 09:57:03;;;;;;;;;;;;;;;;;;5024567;28;19921;-71
2023/02/08 09:59:28;;;;;;;;;;;;;;;;;;5021460;28;20016;-70
2023/02/08 10:01:56;;;;;;;;;;;;;;;;;;5021273;28;20471;-70
2023/02/08 10:04:22;;;;;;;;;;;;;;;;;;5018159;28;19960;-70
2023/02/08 10:06:49;;;;;;;;;;;;;;;;;;5036289;28;20107;-70
2023/02/08 10:09:17;;;;;;;;;;;;;;;;;;5034707;28;20391;-70
2023/02/08 10:11:44;;;;;;;;;;;;;;;;;;5049626;28;19946;-69
2023/02/08 10:14:12;;;;;;;;;;;;;;;;;;5024226;28;20403;-71
2023/02/08 10:16:40;;;;;;;;;;;;;;;;;;5021011;28;19955;-70
2023/02/08 10:19:08;;;;;;;;;;;;;;;;;;5033545;28;19920;-70
2023/02/08 10:21:33;;;;;;;;;;;;;;;;;;5034879;28;20375;-70
2023/02/08 10:23:59;;;;;;;;;;;;;;;;;;5049694;28;19917;-70
2023/02/08 10:26:24;;;;;;;;;;;;;;;;;;5037205;28;19921;-71
2023/02/08 10:28:49;;;;;;;;;;;;;;;;;;5035101;28;19988;-71
2023/02/08 10:31:17;;;;;;;;;;;;;;;;;;5029031;28;19960;-70
2023/02/08 10:33:43;;;;;;;;;;;;;;;;;;5034768;28;20039;-69
2023/02/08 10:36:08;;;;;;;;;;;;;;;;;;5033171;28;19948;-69
2023/02/08 10:38:36;;;;;;;;;;;;;;;;;;5035971;28;20398;-69
2023/02/08 10:41:04;;;;;;;;;;;;;;;;;;5021891;28;20039;-67
2023/02/08 10:43:32;;;;;;;;;;;;;;;;;;5032667;28;20340;-67
2023/02/08 10:45:58;;;;;;;;;;;;;;;;;;5022018;28;19917;-67
2023/02/08 10:48:26;;;;;;;;;;;;;;;;;;5034598;28;20296;-67
2023/02/08 10:50:51;;;;;;;;;;;;;;;;;;5033250;28;20018;-67
2023/02/08 10:53:19;;;;;;;;;;;;;;;;;;5021717;28;19920;-66
2023/02/08 10:55:44;;;;;;;;;;;;;;;;;;5032105;28;19940;-65
2023/02/08 10:58:10;;;;;;;;;;;;;;;;;;5022066;28;19923;-64
2023/02/08 11:00:37;;;;;;;;;;;;;;;;;;5015751;28;19920;-64
2023/02/08 11:03:05;;;;;;;;;;;;;;;;;;5032816;28;19933;-65
2023/02/08 11:05:30;;;;;;;;;;;;;;;;;;5033337;28;20078;-63
2023/02/08 11:07:55;;;;;;;;;;;;;;;;;;5032617;28;20414;-64
2023/02/08 11:10:21;;;;;;;;;;;;;;;;;;5033294;28;19924;-64
2023/02/08 11:12:46;;;;;;;;;;;;;;;;;;5033771;28;19920;-64
2023/02/08 11:15:11;;;;;;;;;;;;;;;;;;5020065;28;19931;-63
2023/02/08 11:17:39;;;;;;;;;;;;;;;;;;5029746;28;20040;-63
2023/02/08 11:20:07;;;;;;;;;;;;;;;;;;5020399;28;20458;-62
2023/02/08 11:22:33;;;;;;;;;;;;;;;;;;5030560;28;20207;-62
2023/02/08 11:25:01;;;;;;;;;;;;;;;;;;5032949;28;20291;-63
2023/02/08 11:27:27;;;;;;;;;;;;;;;;;;5040317;28;19959;-62
2023/02/08 11:29:52;;;;;;;;;;;;;;;;;;5021834;28;19974;-62
2023/02/08 11:32:20;;;;;;;;;;;;;;;;;;5033238;28;20179;-63
2023/02/08 11:34:46;;;;;;;;;;;;;;;;;;5033923;28;20643;-63
2023/02/08 11:37:11;;;;;;;;;;;;;;;;;;5033182;28;19927;-62
2023/02/08 11:39:36;;;;;;;;;;;;;;;;;;5031958;28;20071;-62
2023/02/08 11:42:06;;;;;;;;;;;;;;;;;;5033097;28;20197;-63
2023/02/08 11:44:32;;;;;;;;;;;;;;;;;;5031959;28;20312;-62
2023/02/08 11:46:57;;;;;;;;;;;;;;;;;;5030561;28;19965;-62
2023/02/08 11:49:25;;;;;;;;;;;;;;;;;;5018641;28;21389;-63
2023/02/08 11:51:53;;;;;;;;;;;;;;;;;;5032262;28;19956;-63
2023/02/08 11:54:18;;;;;;;;;;;;;;;;;;5021712;28;19948;-63
2023/02/08 11:56:44;;;;;;;;;;;;;;;;;;5023020;28;20372;-63
2023/02/08 11:59:11;;;;;;;;;;;;;;;;;;5031769;28;20019;-63
2023/02/08 12:01:40;;;;;;;;;;;;;;;;;;5032917;28;20385;-64
2023/02/08 12:04:08;;;;;;;;;;;;;;;;;;5034274;28;19931;-62
2023/02/08 12:06:33;;;;;;;;;;;;;;;;;;5032004;28;19916;-62
2023/02/08 12:08:58;;;;;;;;;;;;;;;;;;5019644;28;19933;-62
2023/02/08 12:11:24;;;;;;;;;;;;;;;;;;5021581;28;19944;-62
2023/02/08 12:13:54;;;;;;;;;;;;;;;;;;5029481;28;19917;-62
2023/02/08 12:16:25;;;;;;;;;;;;;;;;;;5020480;28;19985;-62
2023/02/08 12:18:53;;;;;;;;;;;;;;;;;;5030127;28;20276;-62
2023/02/08 12:21:24;;;;;;;;;;;;;;;;;;5033127;28;19928;-63
2023/02/08 12:23:49;;;;;;;;;;;;;;;;;;5030153;28;19917;-62
2023/02/08 12:26:17;;;;;;;;;;;;;;;;;;5030828;28;19920;-62
2023/02/08 12:28:47;;;;;;;;;;;;;;;;;;5019930;28;20062;-61
2023/02/08 12:31:15;;;;;;;;;;;;;;;;;;5027547;28;20505;-62
2023/02/08 12:33:43;;;;;;;;;;;;;;;;;;5028516;28;19924;-62
2023/02/08 12:36:10;;;;;;;;;;;;;;;;;;5018209;28;20007;-62
2023/02/08 12:41:20;;;;;;;;;;;;;;;;;;5030851;28;19969;-61
2023/02/08 12:43:45;;;;;;;;;;;;;;;;;;5020604;28;19920;-62
2023/02/08 12:46:11;;;;;;;;;;;;;;;;;;5027201;28;20124;-62
2023/02/08 12:48:36;;;;;;;;;;;;;;;;;;5019957;28;19924;-61
2023/02/08 12:51:01;;;;;;;;;;;;;;;;;;5030955;28;19924;-62
2023/02/08 12:53:29;;;;;;;;;;;;;;;;;;5031852;28;20449;-62
2023/02/08 12:55:57;;;;;;;;;;;;;;;;;;5031188;28;19920;-63
2023/02/08 12:58:23;;;;;;;;;;;;;;;;;;5032392;28;19956;-62
2023/02/08 13:00:48;;;;;;;;;;;;;;;;;;5030215;28;19994;-62
2023/02/08 13:03:13;;;;;;;;;;;;;;;;;;5031878;28;19927;-63
2023/02/08 13:05:38;;;;;;;;;;;;;;;;;;5030041;28;20216;-63
2023/02/08 13:08:09;;;;;;;;;;;;;;;;;;5019845;28;20130;-63
2023/02/08 13:10:34;;;;;;;;;;;;;;;;;;5032489;28;20042;-62
2023/02/08 13:13:02;;;;;;;;;;;;;;;;;;5032218;28;19921;-62
2023/02/08 13:15:27;;;;;;;;;;;;;;;;;;5028643;28;19920;-63
2023/02/08 13:17:58;;;;;;;;;;;;;;;;;;5033418;28;19923;-62
2023/02/08 13:20:23;;;;;;;;;;;;;;;;;;5033037;28;21549;-63
2023/02/08 13:22:51;;;;;;;;;;;;;;;;;;5028388;28;19939;-62
2023/02/08 13:25:16;;;;;;;;;;;;;;;;;;5032366;28;19917;-62
2023/02/08 13:27:44;;;;;;;;;;;;;;;;;;5033100;28;20372;-63
2023/02/08 13:30:09;;;;;;;;;;;;;;;;;;5034849;28;19920;-63
2023/02/08 13:32:35;;;;;;;;;;;;;;;;;;5035656;28;19927;-62
2023/02/08 13:35:00;;;;;;;;;;;;;;;;;;5021013;28;20067;-63
2023/02/08 13:37:29;;;;;;;;;;;;;;;;;;5021771;28;19916;-63
2023/02/08 13:39:54;;;;;;;;;;;;;;;;;;5033740;28;19931;-63
2023/02/08 13:42:20;;;;;;;;;;;;;;;;;;5022846;28;20657;-63
2023/02/08 13:44:45;;;;;;;;;;;;;;;;;;5036341;28;19920;-63
2023/02/08 13:47:10;;;;;;;;;;;;;;;;;;5030653;28;20019;-64
2023/02/08 13:49:36;;;;;;;;;;;;;;;;;;5036999;28;20033;-64
2023/02/08 13:52:04;;;;;;;;;;;;;;;;;;5035176;28;19921;-63
2023/02/08 13:54:29;;;;;;;;;;;;;;;;;;5031796;28;19956;-63
2023/02/08 13:56:54;;;;;;;;;;;;;;;;;;5033586;28;20619;-63
2023/02/08 13:59:20;;;;;;;;;;;;;;;;;;5035313;28;20292;-62
2023/02/08 14:01:45;;;;;;;;;;;;;;;;;;5032415;28;19928;-63
2023/02/08 14:04:10;;;;;;;;;;;;;;;;;;5019783;28;19917;-62
2023/02/08 14:06:35;;;;;;;;;;;;;;;;;;5023449;28;19920;-63
2023/02/08 14:09:01;;;;;;;;;;;;;;;;;;5036006;28;19925;-63
2023/02/08 14:11:26;;;;;;;;;;;;;;;;;;5033517;28;19924;-64
2023/02/08 14:13:54;;;;;;;;;;;;;;;;;;5024208;28;20371;-62
2023/02/08 14:16:19;;;;;;;;;;;;;;;;;;5033721;28;19927;-63
2023/02/08 14:18:44;;;;;;;;;;;;;;;;;;5032623;28;20360;-63
2023/02/08 14:21:10;;;;;;;;;;;;;;;;;;5018412;28;19971;-63
2023/02/08 14:23:35;;;;;;;;;;;;;;;;;;5020148;28;19921;-62
2023/02/08 14:26:00;;;;;;;;;;;;;;;;;;5035378;28;20284;-63
2023/02/08 14:28:28;;;;;;;;;;;;;;;;;;5033864;28;20296;-65
2023/02/08 14:30:54;;;;;;;;;;;;;;;;;;5033311;28;19947;-64
2023/02/08 14:33:19;;;;;;;;;;;;;;;;;;5035806;28;20013;-64
2023/02/08 14:35:47;;;;;;;;;;;;;;;;;;5035592;28;19920;-65
2023/02/08 14:38:12;;;;;;;;;;;;;;;;;;5030568;28;20411;-64
2023/02/08 14:40:40;;;;;;;;;;;;;;;;;;5034161;28;19975;-64
2023/02/08 14:43:06;;;;;;;;;;;;;;;;;;5035724;28;20015;-64
2023/02/08 14:45:31;;;;;;;;;;;;;;;;;;5032824;28;19920;-64
2023/02/08 14:47:59;;;;;;;;;;;;;;;;;;5032121;28;20515;-64
2023/02/08 14:50:27;;;;;;;;;;;;;;;;;;5032818;28;19917;-64
2023/02/08 14:52:55;;;;;;;;;;;;;;;;;;5035026;28;19927;-64
2023/02/08 14:55:20;;;;;;;;;;;;;;;;;;5032481;28;19920;-64
2023/02/08 14:57:48;;;;;;;;;;;;;;;;;;5023128;28;19917;-63
2023/02/08 15:00:14;;;;;;;;;;;;;;;;;;5020582;28;19925;-63
2023/02/08 15:02:39;;;;;;;;;;;;;;;;;;5031242;28;20037;-64
2023/02/08 15:05:07;;;;;;;;;;;;;;;;;;5033871;28;20279;-64
2023/02/08 15:07:32;;;;;;;;;;;;;;;;;;5031564;28;21755;-63
2023/02/08 15:09:57;;;;;;;;;;;;;;;;;;5023906;28;19921;-62
2023/02/08 15:12:23;;;;;;;;;;;;;;;;;;5032737;28;19916;-64
2023/02/08 15:14:48;;;;;;;;;;;;;;;;;;5022412;28;19927;-63
2023/02/08 15:17:16;;;;;;;;;;;;;;;;;;5033460;28;19921;-64
2023/02/08 15:19:44;;;;;;;;;;;;;;;;;;5019452;28;19920;-64
2023/02/08 15:22:09;;;;;;;;;;;;;;;;;;5034884;28;19920;-64
2023/02/08 15:24:37;;;;;;;;;;;;;;;;;;5023913;28;20074;-63
2023/02/08 15:27:05;;;;;;;;;;;;;;;;;;5034212;28;19917;-63
2023/02/08 15:29:30;;;;;;;;;;;;;;;;;;5033798;28;20067;-63
2023/02/08 15:31:55;;;;;;;;;;;;;;;;;;5037045;28;19924;-63
2023/02/08 15:34:21;;;;;;;;;;;;;;;;;;5019696;28;20148;-63
2023/02/08 15:36:46;;;;;;;;;;;;;;;;;;5029903;28;19924;-63
2023/02/08 15:39:11;;;;;;;;;;;;;;;;;;5020088;28;19927;-64
2023/02/08 15:41:37;;;;;;;;;;;;;;;;;;5033561;28;20090;-63
2023/02/08 15:44:05;;;;;;;;;;;;;;;;;;5031522;28;20041;-63
2023/02/08 15:46:30;;;;;;;;;;;;;;;;;;5021954;28;20470;-62
2023/02/08 15:48:56;;;;;;;;;;;;;;;;;;5029174;28;19971;-64
2023/02/08 15:51:26;;;;;;;;;;;;;;;;;;5030524;28;20824;-63
2023/02/08 15:53:51;;;;;;;;;;;;;;;;;;5048553;28;20011;-63
2023/02/08 15:56:16;;;;;;;;;;;;;;;;;;5034069;28;20362;-63
2023/02/08 15:58:42;;;;;;;;;;;;;;;;;;5029756;28;19924;-63
2023/02/08 16:01:10;;;;;;;;;;;;;;;;;;5031122;28;19975;-63
2023/02/08 16:03:38;;;;;;;;;;;;;;;;;;5019510;28;20088;-62
2023/02/08 16:06:06;;;;;;;;;;;;;;;;;;5019360;28;19978;-63
2023/02/08 16:08:31;;;;;;;;;;;;;;;;;;5019650;28;19920;-63
2023/02/08 16:11:00;;;;;;;;;;;;;;;;;;5031531;28;20296;-63
2023/02/08 16:13:25;;;;;;;;;;;;;;;;;;5021572;28;20011;-63
2023/02/08 16:15:55;;;;;;;;;;;;;;;;;;5031340;28;19916;-63
2023/02/08 16:18:25;;;;;;;;;;;;;;;;;;5014200;28;19928;-64
2023/02/08 16:20:51;;;;;;;;;;;;;;;;;;5029598;28;19924;-63
2023/02/08 16:23:18;;;;;;;;;;;;;;;;;;5019716;28;19921;-63
2023/02/08 16:25:44;;;;;;;;;;;;;;;;;;5033042;28;20091;-63
2023/02/08 16:28:11;;;;;;;;;;;;;;;;;;5033563;28;19920;-63
2023/02/08 16:30:36;;;;;;;;;;;;;;;;;;5035336;28;20008;-64
2023/02/08 16:33:02;;;;;;;;;;;;;;;;;;5029701;28;20024;-64
2023/02/08 16:35:32;;;;;;;;;;;;;;;;;;5032512;28;20756;-64
2023/02/08 16:38:01;;;;;;;;;;;;;;;;;;5031978;28;21004;-63
2023/02/08 16:40:26;;;;;;;;;;;;;;;;;;5030891;28;20353;-63
2023/02/08 16:42:51;;;;;;;;;;;;;;;;;;5021871;28;19959;-63
2023/02/08 16:45:22;;;;;;;;;;;;;;;;;;5031494;28;20398;-63